sensor_id;sensor_type;location;lat;lon;timestamp;P1;durP1;ratioP1;P2;durP2;ratioP2
50301;SDS011;36550;50.472;19.744;2023-06-22T00:02:16;14.90;;;12.40;;
50301;SDS011;36550;50.472;19.744;2023-06-22T00:05:01;16.10;;;12.80;;
50301;SDS011;36550;50.472;19.744;2023-06-22T00:07:45;18.80;;;13.70;;
50301;SDS011;36550;50.472;19.744;2023-06-22T00:10:28;18.00;;;14.40;;
50301;SDS011;36550;50.472;19.744;2023-06-22T00:13:13;17.30;;;13.70;;
50301;SDS011;36550;50.472;19.744;2023-06-22T00:15:57;21.70;;;14.20;;
50301;SDS011;36550;50.472;19.744;2023-06-22T00:18:41;17.40;;;14.00;;
50301;SDS011;36550;50.472;19.744;2023-06-22T00:21:30;18.40;;;14.30;;
50301;SDS011;36550;50.472;19.744;2023-06-22T00:24:14;18.20;;;13.90;;
50301;SDS011;36550;50.472;19.744;2023-06-22T00:26:58;19.40;;;14.70;;
50301;SDS011;36550;50.472;19.744;2023-06-22T00:29:42;18.40;;;13.80;;
50301;SDS011;36550;50.472;19.744;2023-06-22T00:32:26;20.30;;;13.90;;
50301;SDS011;36550;50.472;19.744;2023-06-22T00:35:11;22.50;;;14.50;;
50301;SDS011;36550;50.472;19.744;2023-06-22T00:37:56;19.10;;;13.70;;
50301;SDS011;36550;50.472;19.744;2023-06-22T00:40:44;18.00;;;14.90;;
50301;SDS011;36550;50.472;19.744;2023-06-22T00:43:28;23.20;;;15.00;;
50301;SDS011;36550;50.472;19.744;2023-06-22T00:46:12;19.00;;;13.70;;
50301;SDS011;36550;50.472;19.744;2023-06-22T00:48:56;20.70;;;13.40;;
50301;SDS011;36550;50.472;19.744;2023-06-22T00:51:40;19.90;;;14.80;;
50301;SDS011;36550;50.472;19.744;2023-06-22T00:54:29;20.90;;;15.00;;
50301;SDS011;36550;50.472;19.744;2023-06-22T00:57:13;21.90;;;14.50;;
50301;SDS011;36550;50.472;19.744;2023-06-22T00:59:59;22.80;;;15.70;;
50301;SDS011;36550;50.472;19.744;2023-06-22T01:02:44;20.30;;;16.10;;
50301;SDS011;36550;50.472;19.744;2023-06-22T01:05:30;18.70;;;15.40;;
50301;SDS011;36550;50.472;19.744;2023-06-22T01:11:09;19.80;;;15.60;;
50301;SDS011;36550;50.472;19.744;2023-06-22T01:14:04;20.10;;;16.70;;
50301;SDS011;36550;50.472;19.744;2023-06-22T01:16:53;22.40;;;16.70;;
50301;SDS011;36550;50.472;19.744;2023-06-22T01:19:43;19.00;;;16.00;;
50301;SDS011;36550;50.472;19.744;2023-06-22T01:22:46;24.30;;;17.40;;
50301;SDS011;36550;50.472;19.744;2023-06-22T01:25:43;24.80;;;17.90;;
50301;SDS011;36550;50.472;19.744;2023-06-22T01:28:47;23.70;;;17.90;;
50301;SDS011;36550;50.472;19.744;2023-06-22T01:31:32;23.80;;;17.50;;
50301;SDS011;36550;50.472;19.744;2023-06-22T01:34:19;21.50;;;15.90;;
50301;SDS011;36550;50.472;19.744;2023-06-22T01:37:03;19.70;;;15.90;;
50301;SDS011;36550;50.472;19.744;2023-06-22T01:39:48;23.20;;;16.20;;
50301;SDS011;36550;50.472;19.744;2023-06-22T01:42:32;19.70;;;15.20;;
50301;SDS011;36550;50.472;19.744;2023-06-22T01:45:18;19.20;;;13.40;;
50301;SDS011;36550;50.472;19.744;2023-06-22T01:48:02;16.50;;;13.40;;
50301;SDS011;36550;50.472;19.744;2023-06-22T01:50:47;17.80;;;13.70;;
50301;SDS011;36550;50.472;19.744;2023-06-22T01:53:31;18.90;;;14.40;;
50301;SDS011;36550;50.472;19.744;2023-06-22T01:56:16;18.40;;;12.80;;
50301;SDS011;36550;50.472;19.744;2023-06-22T02:01:53;19.50;;;11.40;;
50301;SDS011;36550;50.472;19.744;2023-06-22T02:04:44;18.10;;;11.80;;
50301;SDS011;36550;50.472;19.744;2023-06-22T02:07:36;21.70;;;11.30;;
50301;SDS011;36550;50.472;19.744;2023-06-22T02:10:24;22.30;;;11.80;;
50301;SDS011;36550;50.472;19.744;2023-06-22T02:13:11;18.90;;;11.60;;
50301;SDS011;36550;50.472;19.744;2023-06-22T02:15:56;19.00;;;11.10;;
50301;SDS011;36550;50.472;19.744;2023-06-22T02:18:50;21.60;;;11.20;;
50301;SDS011;36550;50.472;19.744;2023-06-22T02:21:35;20.40;;;10.10;;
50301;SDS011;36550;50.472;19.744;2023-06-22T02:24:19;17.70;;;10.20;;
50301;SDS011;36550;50.472;19.744;2023-06-22T02:27:03;19.70;;;10.80;;
50301;SDS011;36550;50.472;19.744;2023-06-22T02:29:47;16.20;;;9.60;;
50301;SDS011;36550;50.472;19.744;2023-06-22T02:32:30;18.80;;;10.50;;
50301;SDS011;36550;50.472;19.744;2023-06-22T02:35:17;17.60;;;9.10;;
50301;SDS011;36550;50.472;19.744;2023-06-22T02:38:02;15.60;;;9.00;;
50301;SDS011;36550;50.472;19.744;2023-06-22T02:40:47;21.40;;;9.70;;
50301;SDS011;36550;50.472;19.744;2023-06-22T02:43:31;17.50;;;9.20;;
50301;SDS011;36550;50.472;19.744;2023-06-22T02:46:15;16.50;;;10.70;;
50301;SDS011;36550;50.472;19.744;2023-06-22T02:48:59;14.60;;;10.30;;
50301;SDS011;36550;50.472;19.744;2023-06-22T02:51:45;24.60;;;10.90;;
50301;SDS011;36550;50.472;19.744;2023-06-22T02:54:30;23.70;;;10.80;;
50301;SDS011;36550;50.472;19.744;2023-06-22T02:57:14;17.30;;;11.70;;
50301;SDS011;36550;50.472;19.744;2023-06-22T02:59:58;22.80;;;12.10;;
50301;SDS011;36550;50.472;19.744;2023-06-22T03:02:43;22.00;;;12.00;;
50301;SDS011;36550;50.472;19.744;2023-06-22T03:05:28;22.20;;;13.30;;
50301;SDS011;36550;50.472;19.744;2023-06-22T03:08:12;21.60;;;12.90;;
50301;SDS011;36550;50.472;19.744;2023-06-22T03:10:56;22.10;;;13.10;;
50301;SDS011;36550;50.472;19.744;2023-06-22T03:13:40;20.60;;;11.60;;
50301;SDS011;36550;50.472;19.744;2023-06-22T03:16:24;26.70;;;12.10;;
50301;SDS011;36550;50.472;19.744;2023-06-22T03:19:08;18.80;;;11.70;;
50301;SDS011;36550;50.472;19.744;2023-06-22T03:21:51;20.90;;;11.60;;
50301;SDS011;36550;50.472;19.744;2023-06-22T03:24:35;20.90;;;11.90;;
50301;SDS011;36550;50.472;19.744;2023-06-22T03:27:20;20.50;;;12.50;;
50301;SDS011;36550;50.472;19.744;2023-06-22T03:30:05;22.10;;;12.50;;
50301;SDS011;36550;50.472;19.744;2023-06-22T03:32:50;24.10;;;12.60;;
50301;SDS011;36550;50.472;19.744;2023-06-22T03:35:34;22.20;;;12.40;;
50301;SDS011;36550;50.472;19.744;2023-06-22T03:38:18;22.20;;;11.90;;
50301;SDS011;36550;50.472;19.744;2023-06-22T03:41:01;21.50;;;11.70;;
50301;SDS011;36550;50.472;19.744;2023-06-22T03:43:45;25.30;;;12.30;;
50301;SDS011;36550;50.472;19.744;2023-06-22T03:46:29;17.70;;;11.20;;
50301;SDS011;36550;50.472;19.744;2023-06-22T03:49:13;21.60;;;13.30;;
50301;SDS011;36550;50.472;19.744;2023-06-22T03:51:57;26.90;;;15.00;;
50301;SDS011;36550;50.472;19.744;2023-06-22T03:54:41;24.50;;;16.60;;
50301;SDS011;36550;50.472;19.744;2023-06-22T03:57:25;23.60;;;14.00;;
50301;SDS011;36550;50.472;19.744;2023-06-22T04:00:09;20.30;;;11.20;;
50301;SDS011;36550;50.472;19.744;2023-06-22T04:02:54;24.90;;;12.60;;
50301;SDS011;36550;50.472;19.744;2023-06-22T04:05:39;17.80;;;11.90;;
50301;SDS011;36550;50.472;19.744;2023-06-22T04:08:23;18.70;;;11.40;;
50301;SDS011;36550;50.472;19.744;2023-06-22T04:11:07;21.00;;;12.50;;
50301;SDS011;36550;50.472;19.744;2023-06-22T04:13:51;18.40;;;12.70;;
50301;SDS011;36550;50.472;19.744;2023-06-22T04:16:35;23.60;;;13.40;;
50301;SDS011;36550;50.472;19.744;2023-06-22T04:19:19;22.50;;;13.70;;
50301;SDS011;36550;50.472;19.744;2023-06-22T04:22:03;22.50;;;13.60;;
50301;SDS011;36550;50.472;19.744;2023-06-22T04:24:47;20.80;;;13.90;;
50301;SDS011;36550;50.472;19.744;2023-06-22T04:27:31;24.40;;;14.00;;
50301;SDS011;36550;50.472;19.744;2023-06-22T04:30:15;29.50;;;13.60;;
50301;SDS011;36550;50.472;19.744;2023-06-22T04:33:00;24.40;;;12.20;;
50301;SDS011;36550;50.472;19.744;2023-06-22T04:35:47;21.90;;;13.10;;
50301;SDS011;36550;50.472;19.744;2023-06-22T04:38:31;22.60;;;14.10;;
50301;SDS011;36550;50.472;19.744;2023-06-22T04:41:17;23.30;;;15.40;;
50301;SDS011;36550;50.472;19.744;2023-06-22T04:44:10;23.90;;;17.00;;
50301;SDS011;36550;50.472;19.744;2023-06-22T04:46:55;23.60;;;16.40;;
50301;SDS011;36550;50.472;19.744;2023-06-22T04:49:51;27.70;;;18.90;;
50301;SDS011;36550;50.472;19.744;2023-06-22T04:52:35;32.10;;;20.20;;
50301;SDS011;36550;50.472;19.744;2023-06-22T04:55:20;25.80;;;20.20;;
50301;SDS011;36550;50.472;19.744;2023-06-22T04:58:04;29.20;;;20.20;;
50301;SDS011;36550;50.472;19.744;2023-06-22T05:00:48;28.30;;;18.90;;
50301;SDS011;36550;50.472;19.744;2023-06-22T05:03:35;28.30;;;20.50;;
50301;SDS011;36550;50.472;19.744;2023-06-22T05:06:21;26.60;;;21.90;;
50301;SDS011;36550;50.472;19.744;2023-06-22T05:09:08;28.60;;;21.60;;
50301;SDS011;36550;50.472;19.744;2023-06-22T05:11:52;29.70;;;22.00;;
50301;SDS011;36550;50.472;19.744;2023-06-22T05:14:36;25.10;;;20.90;;
50301;SDS011;36550;50.472;19.744;2023-06-22T05:17:20;25.80;;;20.70;;
50301;SDS011;36550;50.472;19.744;2023-06-22T05:20:04;28.10;;;21.70;;
50301;SDS011;36550;50.472;19.744;2023-06-22T05:22:49;31.90;;;21.20;;
50301;SDS011;36550;50.472;19.744;2023-06-22T05:25:33;30.60;;;22.40;;
50301;SDS011;36550;50.472;19.744;2023-06-22T05:28:17;25.20;;;21.20;;
50301;SDS011;36550;50.472;19.744;2023-06-22T05:31:06;26.70;;;20.90;;
50301;SDS011;36550;50.472;19.744;2023-06-22T05:33:51;24.30;;;20.50;;
50301;SDS011;36550;50.472;19.744;2023-06-22T05:36:36;24.00;;;20.20;;
50301;SDS011;36550;50.472;19.744;2023-06-22T05:39:20;21.50;;;18.20;;
50301;SDS011;36550;50.472;19.744;2023-06-22T05:42:07;24.50;;;16.60;;
50301;SDS011;36550;50.472;19.744;2023-06-22T05:44:52;21.40;;;16.20;;
50301;SDS011;36550;50.472;19.744;2023-06-22T05:47:37;17.50;;;15.00;;
50301;SDS011;36550;50.472;19.744;2023-06-22T05:50:21;17.10;;;14.80;;
50301;SDS011;36550;50.472;19.744;2023-06-22T05:53:04;16.50;;;14.50;;
50301;SDS011;36550;50.472;19.744;2023-06-22T05:55:50;20.00;;;14.50;;
50301;SDS011;36550;50.472;19.744;2023-06-22T05:58:35;15.40;;;12.90;;
50301;SDS011;36550;50.472;19.744;2023-06-22T06:01:19;14.30;;;12.80;;
50301;SDS011;36550;50.472;19.744;2023-06-22T06:04:03;15.30;;;13.20;;
50301;SDS011;36550;50.472;19.744;2023-06-22T06:06:48;16.70;;;13.20;;
50301;SDS011;36550;50.472;19.744;2023-06-22T06:09:32;14.10;;;12.50;;
50301;SDS011;36550;50.472;19.744;2023-06-22T06:12:16;13.60;;;12.20;;
50301;SDS011;36550;50.472;19.744;2023-06-22T06:14:59;16.10;;;12.30;;
50301;SDS011;36550;50.472;19.744;2023-06-22T06:17:49;15.40;;;12.20;;
50301;SDS011;36550;50.472;19.744;2023-06-22T06:20:34;15.50;;;11.60;;
50301;SDS011;36550;50.472;19.744;2023-06-22T06:23:18;10.50;;;9.40;;
50301;SDS011;36550;50.472;19.744;2023-06-22T06:26:02;13.80;;;11.80;;
50301;SDS011;36550;50.472;19.744;2023-06-22T06:28:50;13.90;;;11.50;;
50301;SDS011;36550;50.472;19.744;2023-06-22T06:31:34;12.10;;;10.90;;
50301;SDS011;36550;50.472;19.744;2023-06-22T06:34:18;15.50;;;12.80;;
50301;SDS011;36550;50.472;19.744;2023-06-22T06:37:03;13.60;;;12.20;;
50301;SDS011;36550;50.472;19.744;2023-06-22T06:39:47;12.20;;;10.90;;
50301;SDS011;36550;50.472;19.744;2023-06-22T06:42:31;12.80;;;11.50;;
50301;SDS011;36550;50.472;19.744;2023-06-22T06:45:16;15.20;;;10.50;;
50301;SDS011;36550;50.472;19.744;2023-06-22T06:48:01;13.80;;;11.20;;
50301;SDS011;36550;50.472;19.744;2023-06-22T06:50:45;14.20;;;11.30;;
50301;SDS011;36550;50.472;19.744;2023-06-22T06:53:29;14.00;;;11.20;;
50301;SDS011;36550;50.472;19.744;2023-06-22T06:56:13;12.30;;;10.80;;
50301;SDS011;36550;50.472;19.744;2023-06-22T06:58:57;13.90;;;11.00;;
50301;SDS011;36550;50.472;19.744;2023-06-22T07:01:42;12.70;;;11.40;;
50301;SDS011;36550;50.472;19.744;2023-06-22T07:04:28;13.00;;;11.10;;
50301;SDS011;36550;50.472;19.744;2023-06-22T07:07:11;10.20;;;8.30;;
50301;SDS011;36550;50.472;19.744;2023-06-22T07:09:55;8.00;;;7.20;;
50301;SDS011;36550;50.472;19.744;2023-06-22T07:12:39;8.20;;;7.30;;
50301;SDS011;36550;50.472;19.744;2023-06-22T07:15:23;10.10;;;8.90;;
50301;SDS011;36550;50.472;19.744;2023-06-22T07:18:07;11.40;;;8.80;;
50301;SDS011;36550;50.472;19.744;2023-06-22T07:20:51;11.50;;;8.70;;
50301;SDS011;36550;50.472;19.744;2023-06-22T07:23:36;13.40;;;9.00;;
50301;SDS011;36550;50.472;19.744;2023-06-22T07:26:20;11.20;;;8.50;;
50301;SDS011;36550;50.472;19.744;2023-06-22T07:29:04;10.50;;;8.30;;
50301;SDS011;36550;50.472;19.744;2023-06-22T07:31:49;8.10;;;7.30;;
50301;SDS011;36550;50.472;19.744;2023-06-22T07:34:35;9.30;;;6.60;;
50301;SDS011;36550;50.472;19.744;2023-06-22T07:37:19;7.30;;;6.50;;
50301;SDS011;36550;50.472;19.744;2023-06-22T07:40:03;7.30;;;6.40;;
50301;SDS011;36550;50.472;19.744;2023-06-22T07:42:50;11.00;;;7.10;;
50301;SDS011;36550;50.472;19.744;2023-06-22T07:48:21;10.40;;;7.10;;
50301;SDS011;36550;50.472;19.744;2023-06-22T07:51:06;9.30;;;7.50;;
50301;SDS011;36550;50.472;19.744;2023-06-22T07:53:49;8.40;;;7.60;;
50301;SDS011;36550;50.472;19.744;2023-06-22T07:56:34;9.90;;;5.00;;
50301;SDS011;36550;50.472;19.744;2023-06-22T07:59:19;6.00;;;5.40;;
50301;SDS011;36550;50.472;19.744;2023-06-22T08:02:03;6.40;;;5.40;;
50301;SDS011;36550;50.472;19.744;2023-06-22T08:04:48;7.50;;;5.40;;
50301;SDS011;36550;50.472;19.744;2023-06-22T08:07:33;7.10;;;5.80;;
50301;SDS011;36550;50.472;19.744;2023-06-22T08:10:19;6.70;;;6.00;;
50301;SDS011;36550;50.472;19.744;2023-06-22T08:13:03;7.20;;;5.60;;
50301;SDS011;36550;50.472;19.744;2023-06-22T08:15:46;6.00;;;5.40;;
50301;SDS011;36550;50.472;19.744;2023-06-22T08:18:30;8.00;;;6.60;;
50301;SDS011;36550;50.472;19.744;2023-06-22T08:21:14;6.90;;;5.90;;
50301;SDS011;36550;50.472;19.744;2023-06-22T08:23:58;7.50;;;5.40;;
50301;SDS011;36550;50.472;19.744;2023-06-22T08:26:42;6.40;;;5.60;;
50301;SDS011;36550;50.472;19.744;2023-06-22T08:29:26;8.80;;;6.20;;
50301;SDS011;36550;50.472;19.744;2023-06-22T08:32:09;7.00;;;5.00;;
50301;SDS011;36550;50.472;19.744;2023-06-22T08:34:54;9.10;;;6.30;;
50301;SDS011;36550;50.472;19.744;2023-06-22T08:37:39;7.00;;;6.10;;
50301;SDS011;36550;50.472;19.744;2023-06-22T08:40:23;6.50;;;5.40;;
50301;SDS011;36550;50.472;19.744;2023-06-22T08:43:08;7.60;;;5.50;;
50301;SDS011;36550;50.472;19.744;2023-06-22T08:45:52;6.70;;;5.90;;
50301;SDS011;36550;50.472;19.744;2023-06-22T08:48:36;6.60;;;5.80;;
50301;SDS011;36550;50.472;19.744;2023-06-22T08:51:20;9.50;;;5.60;;
50301;SDS011;36550;50.472;19.744;2023-06-22T08:54:04;7.90;;;6.40;;
50301;SDS011;36550;50.472;19.744;2023-06-22T08:56:48;7.40;;;5.30;;
50301;SDS011;36550;50.472;19.744;2023-06-22T08:59:32;7.50;;;6.00;;
50301;SDS011;36550;50.472;19.744;2023-06-22T09:02:15;7.10;;;5.70;;
50301;SDS011;36550;50.472;19.744;2023-06-22T09:05:02;5.80;;;5.20;;
50301;SDS011;36550;50.472;19.744;2023-06-22T09:07:47;7.60;;;5.40;;
50301;SDS011;36550;50.472;19.744;2023-06-22T09:10:31;7.10;;;5.90;;
50301;SDS011;36550;50.472;19.744;2023-06-22T09:13:15;7.70;;;5.20;;
50301;SDS011;36550;50.472;19.744;2023-06-22T09:15:59;7.00;;;5.40;;
50301;SDS011;36550;50.472;19.744;2023-06-22T09:18:46;7.90;;;5.40;;
50301;SDS011;36550;50.472;19.744;2023-06-22T09:21:31;6.40;;;5.60;;
50301;SDS011;36550;50.472;19.744;2023-06-22T09:24:15;8.30;;;6.00;;
50301;SDS011;36550;50.472;19.744;2023-06-22T09:26:59;7.40;;;5.60;;
50301;SDS011;36550;50.472;19.744;2023-06-22T09:29:43;6.00;;;5.50;;
50301;SDS011;36550;50.472;19.744;2023-06-22T09:32:27;5.90;;;5.30;;
50301;SDS011;36550;50.472;19.744;2023-06-22T09:35:10;7.90;;;6.00;;
50301;SDS011;36550;50.472;19.744;2023-06-22T09:37:56;6.00;;;5.20;;
50301;SDS011;36550;50.472;19.744;2023-06-22T09:40:40;5.20;;;4.60;;
50301;SDS011;36550;50.472;19.744;2023-06-22T09:43:24;7.10;;;4.40;;
50301;SDS011;36550;50.472;19.744;2023-06-22T09:46:07;5.90;;;4.70;;
50301;SDS011;36550;50.472;19.744;2023-06-22T09:48:53;7.20;;;4.90;;
50301;SDS011;36550;50.472;19.744;2023-06-22T09:51:37;5.50;;;4.80;;
50301;SDS011;36550;50.472;19.744;2023-06-22T09:54:20;8.50;;;5.10;;
50301;SDS011;36550;50.472;19.744;2023-06-22T09:57:04;5.90;;;5.20;;
50301;SDS011;36550;50.472;19.744;2023-06-22T09:59:48;7.00;;;4.90;;
50301;SDS011;36550;50.472;19.744;2023-06-22T10:02:32;6.90;;;5.60;;
50301;SDS011;36550;50.472;19.744;2023-06-22T10:05:16;7.10;;;5.50;;
50301;SDS011;36550;50.472;19.744;2023-06-22T10:08:01;6.60;;;5.70;;
50301;SDS011;36550;50.472;19.744;2023-06-22T10:10:45;8.10;;;5.60;;
50301;SDS011;36550;50.472;19.744;2023-06-22T10:13:29;6.80;;;6.00;;
50301;SDS011;36550;50.472;19.744;2023-06-22T10:16:13;7.00;;;6.20;;
50301;SDS011;36550;50.472;19.744;2023-06-22T10:18:57;10.50;;;6.20;;
50301;SDS011;36550;50.472;19.744;2023-06-22T10:21:40;8.40;;;6.00;;
50301;SDS011;36550;50.472;19.744;2023-06-22T10:24:24;6.60;;;5.90;;
50301;SDS011;36550;50.472;19.744;2023-06-22T10:27:08;8.70;;;6.00;;
50301;SDS011;36550;50.472;19.744;2023-06-22T10:29:52;9.00;;;6.20;;
50301;SDS011;36550;50.472;19.744;2023-06-22T10:32:38;7.40;;;6.60;;
50301;SDS011;36550;50.472;19.744;2023-06-22T10:35:22;6.90;;;6.10;;
50301;SDS011;36550;50.472;19.744;2023-06-22T10:38:06;7.60;;;5.40;;
50301;SDS011;36550;50.472;19.744;2023-06-22T10:40:50;6.60;;;5.90;;
50301;SDS011;36550;50.472;19.744;2023-06-22T10:43:34;7.90;;;6.10;;
50301;SDS011;36550;50.472;19.744;2023-06-22T10:46:18;7.10;;;6.40;;
50301;SDS011;36550;50.472;19.744;2023-06-22T10:49:02;8.70;;;6.50;;
50301;SDS011;36550;50.472;19.744;2023-06-22T10:51:46;7.60;;;6.30;;
50301;SDS011;36550;50.472;19.744;2023-06-22T10:54:29;6.80;;;6.10;;
50301;SDS011;36550;50.472;19.744;2023-06-22T10:57:13;8.50;;;6.50;;
50301;SDS011;36550;50.472;19.744;2023-06-22T10:59:57;8.00;;;5.70;;
50301;SDS011;36550;50.472;19.744;2023-06-22T11:02:41;8.20;;;6.00;;
50301;SDS011;36550;50.472;19.744;2023-06-22T11:05:25;7.10;;;6.00;;
50301;SDS011;36550;50.472;19.744;2023-06-22T11:08:09;8.30;;;6.30;;
50301;SDS011;36550;50.472;19.744;2023-06-22T11:10:53;6.90;;;6.20;;
50301;SDS011;36550;50.472;19.744;2023-06-22T11:13:37;6.80;;;6.10;;
50301;SDS011;36550;50.472;19.744;2023-06-22T11:16:21;7.70;;;6.60;;
50301;SDS011;36550;50.472;19.744;2023-06-22T11:19:05;6.50;;;5.80;;
50301;SDS011;36550;50.472;19.744;2023-06-22T11:21:50;6.90;;;6.20;;
50301;SDS011;36550;50.472;19.744;2023-06-22T11:24:34;5.90;;;5.30;;
50301;SDS011;36550;50.472;19.744;2023-06-22T11:27:17;7.10;;;6.30;;
50301;SDS011;36550;50.472;19.744;2023-06-22T11:30:02;8.30;;;6.10;;
50301;SDS011;36550;50.472;19.744;2023-06-22T11:32:46;5.80;;;5.10;;
50301;SDS011;36550;50.472;19.744;2023-06-22T11:35:30;9.70;;;5.90;;
50301;SDS011;36550;50.472;19.744;2023-06-22T11:38:13;8.90;;;5.20;;
50301;SDS011;36550;50.472;19.744;2023-06-22T11:41:00;7.30;;;6.10;;
50301;SDS011;36550;50.472;19.744;2023-06-22T11:43:44;7.90;;;5.80;;
50301;SDS011;36550;50.472;19.744;2023-06-22T11:46:28;7.00;;;5.90;;
50301;SDS011;36550;50.472;19.744;2023-06-22T11:49:12;6.70;;;5.00;;
50301;SDS011;36550;50.472;19.744;2023-06-22T11:51:56;6.30;;;5.10;;
50301;SDS011;36550;50.472;19.744;2023-06-22T11:54:41;7.00;;;5.30;;
50301;SDS011;36550;50.472;19.744;2023-06-22T11:57:24;6.20;;;5.50;;
50301;SDS011;36550;50.472;19.744;2023-06-22T12:00:08;6.20;;;5.60;;
50301;SDS011;36550;50.472;19.744;2023-06-22T12:03:00;6.90;;;5.80;;
50301;SDS011;36550;50.472;19.744;2023-06-22T12:05:44;7.40;;;6.10;;
50301;SDS011;36550;50.472;19.744;2023-06-22T12:08:28;8.50;;;5.70;;
50301;SDS011;36550;50.472;19.744;2023-06-22T12:11:12;6.40;;;5.70;;
50301;SDS011;36550;50.472;19.744;2023-06-22T12:13:56;6.70;;;5.40;;
50301;SDS011;36550;50.472;19.744;2023-06-22T12:16:45;8.60;;;4.50;;
50301;SDS011;36550;50.472;19.744;2023-06-22T12:19:28;8.70;;;5.30;;
50301;SDS011;36550;50.472;19.744;2023-06-22T12:22:13;6.20;;;5.50;;
50301;SDS011;36550;50.472;19.744;2023-06-22T12:24:57;8.70;;;5.20;;
50301;SDS011;36550;50.472;19.744;2023-06-22T12:27:40;6.10;;;5.40;;
50301;SDS011;36550;50.472;19.744;2023-06-22T12:30:24;6.60;;;5.20;;
50301;SDS011;36550;50.472;19.744;2023-06-22T12:33:08;6.20;;;5.60;;
50301;SDS011;36550;50.472;19.744;2023-06-22T12:35:52;6.10;;;5.50;;
50301;SDS011;36550;50.472;19.744;2023-06-22T12:38:36;7.80;;;5.40;;
50301;SDS011;36550;50.472;19.744;2023-06-22T12:41:20;7.00;;;5.50;;
50301;SDS011;36550;50.472;19.744;2023-06-22T12:44:04;6.10;;;5.50;;
50301;SDS011;36550;50.472;19.744;2023-06-22T12:46:48;5.90;;;5.40;;
50301;SDS011;36550;50.472;19.744;2023-06-22T12:49:32;6.30;;;5.70;;
50301;SDS011;36550;50.472;19.744;2023-06-22T12:52:16;6.90;;;5.80;;
50301;SDS011;36550;50.472;19.744;2023-06-22T12:55:00;6.70;;;6.10;;
50301;SDS011;36550;50.472;19.744;2023-06-22T12:57:44;7.00;;;5.80;;
50301;SDS011;36550;50.472;19.744;2023-06-22T13:00:27;9.00;;;5.90;;
50301;SDS011;36550;50.472;19.744;2023-06-22T13:03:11;6.80;;;6.00;;
50301;SDS011;36550;50.472;19.744;2023-06-22T13:05:55;6.30;;;5.60;;
50301;SDS011;36550;50.472;19.744;2023-06-22T13:08:39;7.90;;;5.70;;
50301;SDS011;36550;50.472;19.744;2023-06-22T13:11:24;7.60;;;6.10;;
50301;SDS011;36550;50.472;19.744;2023-06-22T13:14:08;9.60;;;6.30;;
50301;SDS011;36550;50.472;19.744;2023-06-22T13:16:52;7.50;;;6.30;;
50301;SDS011;36550;50.472;19.744;2023-06-22T13:19:36;7.00;;;6.00;;
50301;SDS011;36550;50.472;19.744;2023-06-22T13:22:27;7.60;;;5.90;;
50301;SDS011;36550;50.472;19.744;2023-06-22T13:25:25;6.60;;;5.90;;
50301;SDS011;36550;50.472;19.744;2023-06-22T13:28:10;6.80;;;6.10;;
50301;SDS011;36550;50.472;19.744;2023-06-22T13:30:57;11.60;;;6.20;;
50301;SDS011;36550;50.472;19.744;2023-06-22T13:33:41;7.70;;;6.00;;
50301;SDS011;36550;50.472;19.744;2023-06-22T13:36:25;6.50;;;5.80;;
50301;SDS011;36550;50.472;19.744;2023-06-22T13:39:09;6.50;;;5.70;;
50301;SDS011;36550;50.472;19.744;2023-06-22T13:41:52;6.70;;;5.30;;
50301;SDS011;36550;50.472;19.744;2023-06-22T13:44:36;6.20;;;5.60;;
50301;SDS011;36550;50.472;19.744;2023-06-22T13:47:20;6.90;;;5.80;;
50301;SDS011;36550;50.472;19.744;2023-06-22T13:50:04;7.70;;;6.00;;
50301;SDS011;36550;50.472;19.744;2023-06-22T13:52:49;9.10;;;6.50;;
50301;SDS011;36550;50.472;19.744;2023-06-22T13:55:32;6.40;;;5.80;;
50301;SDS011;36550;50.472;19.744;2023-06-22T13:58:16;7.00;;;6.10;;
50301;SDS011;36550;50.472;19.744;2023-06-22T14:01:00;6.00;;;5.40;;
50301;SDS011;36550;50.472;19.744;2023-06-22T14:03:44;7.10;;;5.60;;
50301;SDS011;36550;50.472;19.744;2023-06-22T14:06:30;6.40;;;5.80;;
50301;SDS011;36550;50.472;19.744;2023-06-22T14:09:15;6.90;;;6.00;;
50301;SDS011;36550;50.472;19.744;2023-06-22T14:12:02;6.60;;;6.00;;
50301;SDS011;36550;50.472;19.744;2023-06-22T14:14:48;6.70;;;5.70;;
50301;SDS011;36550;50.472;19.744;2023-06-22T14:17:32;5.90;;;5.30;;
50301;SDS011;36550;50.472;19.744;2023-06-22T14:20:17;6.70;;;5.70;;
50301;SDS011;36550;50.472;19.744;2023-06-22T14:23:02;7.50;;;6.30;;
50301;SDS011;36550;50.472;19.744;2023-06-22T14:25:45;8.30;;;5.80;;
50301;SDS011;36550;50.472;19.744;2023-06-22T14:28:29;7.90;;;6.20;;
50301;SDS011;36550;50.472;19.744;2023-06-22T14:31:17;7.10;;;5.90;;
50301;SDS011;36550;50.472;19.744;2023-06-22T14:34:02;8.90;;;5.60;;
50301;SDS011;36550;50.472;19.744;2023-06-22T14:36:47;9.70;;;5.40;;
50301;SDS011;36550;50.472;19.744;2023-06-22T14:39:30;6.10;;;5.50;;
50301;SDS011;36550;50.472;19.744;2023-06-22T14:42:14;6.10;;;5.50;;
50301;SDS011;36550;50.472;19.744;2023-06-22T14:44:58;6.70;;;6.00;;
50301;SDS011;36550;50.472;19.744;2023-06-22T14:47:42;6.20;;;5.60;;
50301;SDS011;36550;50.472;19.744;2023-06-22T14:50:26;6.30;;;5.70;;
50301;SDS011;36550;50.472;19.744;2023-06-22T14:53:09;6.40;;;5.80;;
50301;SDS011;36550;50.472;19.744;2023-06-22T14:55:53;8.70;;;5.80;;
50301;SDS011;36550;50.472;19.744;2023-06-22T15:01:23;6.40;;;5.80;;
50301;SDS011;36550;50.472;19.744;2023-06-22T15:04:07;6.40;;;5.60;;
50301;SDS011;36550;50.472;19.744;2023-06-22T15:06:51;7.00;;;5.90;;
50301;SDS011;36550;50.472;19.744;2023-06-22T15:09:35;7.10;;;6.30;;
50301;SDS011;36550;50.472;19.744;2023-06-22T15:12:22;8.70;;;6.00;;
50301;SDS011;36550;50.472;19.744;2023-06-22T15:15:06;6.20;;;5.60;;
50301;SDS011;36550;50.472;19.744;2023-06-22T15:17:51;6.10;;;5.40;;
50301;SDS011;36550;50.472;19.744;2023-06-22T15:20:35;8.30;;;5.20;;
50301;SDS011;36550;50.472;19.744;2023-06-22T15:23:18;8.20;;;5.50;;
50301;SDS011;36550;50.472;19.744;2023-06-22T15:26:03;6.40;;;5.60;;
50301;SDS011;36550;50.472;19.744;2023-06-22T15:28:50;5.90;;;5.30;;
50301;SDS011;36550;50.472;19.744;2023-06-22T15:31:34;7.70;;;6.00;;
50301;SDS011;36550;50.472;19.744;2023-06-22T15:34:18;9.00;;;6.30;;
50301;SDS011;36550;50.472;19.744;2023-06-22T15:37:02;8.50;;;5.90;;
50301;SDS011;36550;50.472;19.744;2023-06-22T15:39:46;9.00;;;5.70;;
50301;SDS011;36550;50.472;19.744;2023-06-22T15:42:30;7.30;;;6.40;;
50301;SDS011;36550;50.472;19.744;2023-06-22T15:45:14;7.80;;;6.20;;
50301;SDS011;36550;50.472;19.744;2023-06-22T15:47:58;6.60;;;6.00;;
50301;SDS011;36550;50.472;19.744;2023-06-22T15:50:42;6.10;;;5.50;;
50301;SDS011;36550;50.472;19.744;2023-06-22T15:53:26;5.90;;;5.40;;
50301;SDS011;36550;50.472;19.744;2023-06-22T15:56:09;8.00;;;5.50;;
50301;SDS011;36550;50.472;19.744;2023-06-22T15:58:53;7.30;;;6.00;;
50301;SDS011;36550;50.472;19.744;2023-06-22T16:01:37;6.90;;;5.80;;
50301;SDS011;36550;50.472;19.744;2023-06-22T16:04:21;7.80;;;6.10;;
50301;SDS011;36550;50.472;19.744;2023-06-22T16:07:05;7.90;;;6.50;;
50301;SDS011;36550;50.472;19.744;2023-06-22T16:09:49;6.60;;;5.30;;
50301;SDS011;36550;50.472;19.744;2023-06-22T16:12:33;6.20;;;5.60;;
50301;SDS011;36550;50.472;19.744;2023-06-22T16:15:18;6.50;;;5.80;;
50301;SDS011;36550;50.472;19.744;2023-06-22T16:18:01;7.10;;;5.40;;